createdAt,value
2022-07-26T00:00:14.256Z,96.27
2022-07-26T00:02:48.185Z,96.03
2022-07-26T00:05:18.169Z,95.78
2022-07-26T00:07:47.321Z,95.62
2022-07-26T00:10:14.810Z,95.40
2022-07-26T00:12:45.595Z,95.56
2022-07-26T00:15:12.527Z,95.28
2022-07-26T00:17:39.526Z,94.92
2022-07-26T00:20:07.049Z,94.67
2022-07-26T00:22:34.341Z,95.00
2022-07-26T00:25:06.450Z,95.55
2022-07-26T00:27:37.185Z,95.84
2022-07-26T00:30:08.769Z,95.82
2022-07-26T00:32:36.130Z,95.69
2022-07-26T00:35:03.380Z,95.43
2022-07-26T00:37:30.239Z,95.37
2022-07-26T00:39:57.092Z,95.27
2022-07-26T00:42:23.985Z,95.30
2022-07-26T00:44:50.827Z,95.40
2022-07-26T00:47:17.757Z,95.29
2022-07-26T00:49:45.285Z,95.39
2022-07-26T00:52:12.572Z,95.30
2022-07-26T00:54:45.638Z,95.29
2022-07-26T00:57:14.042Z,95.10
2022-07-26T00:59:42.237Z,95.41
2022-07-26T01:02:23.335Z,96.00
2022-07-26T01:04:50.170Z,96.58
2022-07-26T01:07:17.393Z,97.26
2022-07-26T01:09:44.938Z,97.66
2022-07-26T01:12:12.784Z,97.88
2022-07-26T01:14:44.237Z,97.31
2022-07-26T01:17:12.158Z,96.66
2022-07-26T01:19:39.092Z,96.31
2022-07-26T01:22:08.811Z,96.35
2022-07-26T01:24:38.143Z,96.46
2022-07-26T01:27:05.067Z,96.43
2022-07-26T01:29:36.186Z,96.79
2022-07-26T01:32:05.023Z,96.97
2022-07-26T01:34:31.968Z,97.00
2022-07-26T01:36:58.890Z,96.84
2022-07-26T01:39:25.649Z,96.92
2022-07-26T01:41:53.051Z,97.41
2022-07-26T01:44:19.835Z,97.75
2022-07-26T01:46:46.641Z,98.10
2022-07-26T01:49:13.616Z,98.28
2022-07-26T01:51:40.523Z,97.92
2022-07-26T01:54:07.716Z,97.52
2022-07-26T01:56:34.917Z,97.29
2022-07-26T01:59:01.901Z,96.70
2022-07-26T02:01:39.736Z,96.58
2022-07-26T02:04:09.145Z,96.32
2022-07-26T02:06:37.326Z,96.44
2022-07-26T02:09:07.558Z,96.62
2022-07-26T02:11:37.495Z,96.82
2022-07-26T02:14:04.642Z,97.02
2022-07-26T02:16:31.656Z,97.95
2022-07-26T02:18:58.478Z,98.35
2022-07-26T02:21:25.401Z,98.36
2022-07-26T02:23:52.245Z,98.39
2022-07-26T02:26:18.961Z,98.60
2022-07-26T02:28:45.891Z,99.00
2022-07-26T02:31:15.526Z,98.98
2022-07-26T02:33:42.633Z,99.39
2022-07-26T02:36:09.401Z,100.00
2022-07-26T02:38:36.181Z,100.00
2022-07-26T02:41:03.009Z,100.00
2022-07-26T02:43:31.700Z,100.00
2022-07-26T02:46:01.066Z,100.00
2022-07-26T02:48:32.251Z,100.00
2022-07-26T02:50:59.400Z,100.00
2022-07-26T02:53:26.224Z,100.00
2022-07-26T02:55:52.947Z,100.00
2022-07-26T02:58:25.032Z,100.00
2022-07-26T03:00:51.930Z,100.00
2022-07-26T03:03:18.759Z,100.00
2022-07-26T03:05:45.671Z,98.95
2022-07-26T03:08:12.554Z,95.86
2022-07-26T03:10:40.313Z,93.06
2022-07-26T03:13:07.327Z,91.54
2022-07-26T03:15:34.263Z,89.77
2022-07-26T03:18:01.377Z,87.23
2022-07-26T03:20:28.264Z,84.05
2022-07-26T03:22:55.112Z,80.23
2022-07-26T03:25:22.076Z,76.92
2022-07-26T03:27:48.943Z,74.44
2022-07-26T03:30:16.386Z,71.55
2022-07-26T03:32:51.870Z,68.07
2022-07-26T03:35:18.727Z,65.39
2022-07-26T03:37:46.754Z,62.42
2022-07-26T03:40:15.832Z,60.18
2022-07-26T03:42:42.705Z,58.70
2022-07-26T03:45:10.020Z,57.29
2022-07-26T03:47:37.396Z,55.02
2022-07-26T03:50:05.986Z,53.51
2022-07-26T03:52:32.938Z,52.66
2022-07-26T03:54:59.921Z,51.60
2022-07-26T03:57:28.233Z,50.70
2022-07-26T03:59:55.977Z,50.01
2022-07-26T04:02:22.891Z,48.50
2022-07-26T04:04:49.770Z,47.27
2022-07-26T04:07:16.611Z,45.79
2022-07-26T04:09:43.455Z,44.62
2022-07-26T04:12:10.265Z,43.53
2022-07-26T04:14:37.137Z,42.47
2022-07-26T04:17:04.089Z,41.91
2022-07-26T04:19:30.993Z,40.88
2022-07-26T04:21:57.773Z,40.65
2022-07-26T04:24:25.660Z,40.10
2022-07-26T04:26:52.807Z,39.30
2022-07-26T04:29:19.578Z,38.35
2022-07-26T04:31:46.372Z,37.89
2022-07-26T04:34:13.230Z,37.12
2022-07-26T04:36:40.003Z,35.88
2022-07-26T04:39:06.944Z,35.45
2022-07-26T04:41:33.737Z,34.70
2022-07-26T04:44:00.550Z,34.01
2022-07-26T04:46:27.488Z,33.86
2022-07-26T04:48:54.416Z,32.90
2022-07-26T04:51:21.354Z,32.50
2022-07-26T04:53:48.268Z,31.92
2022-07-26T04:56:15.087Z,31.51
2022-07-26T04:58:41.864Z,31.05
2022-07-26T05:01:10.384Z,30.76
2022-07-26T05:03:38.420Z,30.81
2022-07-26T05:06:05.452Z,30.39
2022-07-26T05:08:32.263Z,30.03
2022-07-26T05:10:59.103Z,30.19
2022-07-26T05:13:29.690Z,29.24
2022-07-26T05:15:59.465Z,29.33
2022-07-26T05:18:26.945Z,29.54
2022-07-26T05:20:56.399Z,29.04
2022-07-26T05:23:23.237Z,28.93
2022-07-26T05:25:49.975Z,28.54
2022-07-26T05:28:16.825Z,28.34
2022-07-26T05:30:43.847Z,28.69
2022-07-26T05:33:10.676Z,29.04
2022-07-26T05:35:43.141Z,28.81
2022-07-26T05:38:09.958Z,28.81
2022-07-26T05:40:36.873Z,28.16
2022-07-26T05:43:04.782Z,28.51
2022-07-26T05:45:31.874Z,28.15
2022-07-26T05:47:58.691Z,27.87
2022-07-26T05:50:25.573Z,28.22
2022-07-26T05:52:52.339Z,28.53
2022-07-26T05:55:19.319Z,28.46
2022-07-26T05:57:49.611Z,28.16
2022-07-26T06:00:17.271Z,27.89
2022-07-26T06:02:44.151Z,27.70
2022-07-26T06:05:11.088Z,27.76
2022-07-26T06:07:38.945Z,28.24
2022-07-26T06:10:06.406Z,27.83
2022-07-26T06:12:33.303Z,26.76
2022-07-26T06:15:00.168Z,26.41
2022-07-26T06:17:30.368Z,26.83
2022-07-26T06:19:58.618Z,25.52
2022-07-26T06:22:25.756Z,25.47
2022-07-26T06:24:52.703Z,24.66
2022-07-26T06:27:19.598Z,24.39
2022-07-26T06:29:48.547Z,24.21
2022-07-26T06:32:15.496Z,23.65
2022-07-26T06:34:42.462Z,23.75
2022-07-26T06:37:09.304Z,23.50
2022-07-26T06:39:36.174Z,23.44
2022-07-26T06:42:03.153Z,23.53
2022-07-26T06:44:30.064Z,23.75
2022-07-26T06:46:56.921Z,23.55
2022-07-26T06:49:23.781Z,23.58
2022-07-26T06:51:50.606Z,23.47
2022-07-26T06:54:17.564Z,22.59
2022-07-26T06:56:44.715Z,21.90
2022-07-26T06:59:11.572Z,21.07
2022-07-26T07:01:57.811Z,21.25
2022-07-26T07:04:25.339Z,20.60
2022-07-26T07:06:52.360Z,19.66
2022-07-26T07:09:20.191Z,20.00
2022-07-26T07:11:51.878Z,19.25
2022-07-26T07:14:25.595Z,19.64
2022-07-26T07:16:52.511Z,19.69
2022-07-26T07:19:19.790Z,20.31
2022-07-26T07:21:46.793Z,20.07
2022-07-26T07:24:14.037Z,19.26
2022-07-26T07:26:41.766Z,19.73
2022-07-26T07:29:12.744Z,19.85
2022-07-26T07:31:48.534Z,20.55
2022-07-26T07:34:18.149Z,21.81
2022-07-26T07:36:47.108Z,23.00
2022-07-26T07:39:17.595Z,23.75
2022-07-26T07:41:47.700Z,24.60
2022-07-26T07:44:14.699Z,26.04
2022-07-26T07:46:41.657Z,25.41
2022-07-26T07:49:09.036Z,24.68
2022-07-26T07:51:36.490Z,22.86
2022-07-26T07:54:05.935Z,22.45
2022-07-26T07:56:33.891Z,23.00
2022-07-26T07:59:01.255Z,22.67
2022-07-26T08:01:39.343Z,22.18
2022-07-26T08:04:06.831Z,21.01
2022-07-26T08:06:33.599Z,20.11
2022-07-26T08:09:00.580Z,19.37
2022-07-26T08:11:30.029Z,18.81
2022-07-26T08:13:57.168Z,19.50
2022-07-26T08:16:24.834Z,19.63
2022-07-26T08:19:08.664Z,19.91
2022-07-26T08:21:35.945Z,20.10
2022-07-26T08:24:02.911Z,18.83
2022-07-26T08:26:29.918Z,18.08
2022-07-26T08:28:59.737Z,16.54
2022-07-26T08:31:28.720Z,15.44
2022-07-26T08:33:56.067Z,15.31
2022-07-26T08:36:23.231Z,15.07
2022-07-26T08:38:50.066Z,15.90
2022-07-26T08:41:18.195Z,17.05
2022-07-26T08:43:51.614Z,17.17
2022-07-26T08:46:27.705Z,17.08
2022-07-26T08:48:58.300Z,16.62
2022-07-26T08:51:26.225Z,15.80
2022-07-26T08:54:04.258Z,16.23
2022-07-26T08:56:35.023Z,17.13
2022-07-26T08:59:07.164Z,18.54
2022-07-26T09:01:34.489Z,19.75
2022-07-26T09:04:41.439Z,20.69
2022-07-26T09:07:11.759Z,22.40
2022-07-26T09:09:55.835Z,22.81
2022-07-26T09:12:24.557Z,22.29
2022-07-26T09:14:51.639Z,21.49
2022-07-26T09:17:21.322Z,21.33
2022-07-26T09:20:13.108Z,20.23
2022-07-26T09:22:55.810Z,19.10
2022-07-26T09:25:24.462Z,18.48
2022-07-26T09:27:52.308Z,17.70
2022-07-26T09:30:19.422Z,17.21
2022-07-26T09:33:05.196Z,16.13
2022-07-26T09:35:52.217Z,15.14
2022-07-26T09:38:19.983Z,15.78
2022-07-26T09:40:51.164Z,15.80
2022-07-26T09:43:19.742Z,15.21
2022-07-26T09:46:07.361Z,14.48
2022-07-26T09:49:07.010Z,13.83
2022-07-26T09:51:40.920Z,14.99
2022-07-26T09:54:10.081Z,14.91
2022-07-26T09:56:47.713Z,15.48
2022-07-26T09:59:17.345Z,16.22
2022-07-26T10:01:45.674Z,16.92
2022-07-26T10:04:13.829Z,17.65
2022-07-26T10:06:41.840Z,18.43
2022-07-26T10:09:09.895Z,19.68
2022-07-26T10:11:58.198Z,18.62
2022-07-26T10:14:33.817Z,18.22
2022-07-26T10:17:02.262Z,18.12
2022-07-26T10:19:41.710Z,16.98
2022-07-26T10:22:27.148Z,15.71
2022-07-26T10:24:58.164Z,14.42
2022-07-26T10:27:42.347Z,13.79
2022-07-26T10:30:18.426Z,13.90
2022-07-26T10:32:51.603Z,14.17
2022-07-26T10:35:36.584Z,13.15
2022-07-26T10:38:06.158Z,12.62
2022-07-26T10:40:33.644Z,11.76
2022-07-26T10:46:13.477Z,12.81
2022-07-26T10:49:01.632Z,13.87
2022-07-26T10:51:37.965Z,15.01
2022-07-26T10:54:08.731Z,16.30
2022-07-26T10:56:36.347Z,18.20
2022-07-26T10:59:04.265Z,19.18
2022-07-26T11:01:43.424Z,18.33
2022-07-26T11:04:28.544Z,17.17
2022-07-26T11:07:00.835Z,17.45
2022-07-26T11:09:34.427Z,16.57
2022-07-26T11:12:23.086Z,15.50
2022-07-26T11:14:50.797Z,15.51
2022-07-26T11:17:28.914Z,15.60
2022-07-26T11:19:56.797Z,16.65
2022-07-26T11:22:32.232Z,16.06
2022-07-26T11:24:59.104Z,15.98
2022-07-26T11:27:25.887Z,17.11
2022-07-26T11:29:52.752Z,18.26
2022-07-26T11:32:25.305Z,19.90
2022-07-26T11:35:00.396Z,20.99
2022-07-26T11:37:27.652Z,20.62
2022-07-26T11:39:54.472Z,19.73
2022-07-26T11:42:22.220Z,18.64
2022-07-26T11:44:50.163Z,17.29
2022-07-26T11:47:20.248Z,17.46
2022-07-26T11:49:59.700Z,16.69
2022-07-26T11:52:35.325Z,14.96
2022-07-26T11:55:02.064Z,14.64
2022-07-26T11:57:31.687Z,14.28
2022-07-26T12:00:00.069Z,14.02
2022-07-26T12:02:28.025Z,13.99
2022-07-26T12:05:20.238Z,13.58
2022-07-26T12:07:59.543Z,13.34
2022-07-26T12:10:27.651Z,12.43
2022-07-26T12:13:13.825Z,11.95
2022-07-26T12:15:45.885Z,12.13
2022-07-26T12:18:24.550Z,12.04
2022-07-26T12:21:06.727Z,11.76
2022-07-26T12:23:45.736Z,11.57
2022-07-26T12:26:26.578Z,11.64
2022-07-26T12:28:53.859Z,11.59
2022-07-26T12:31:29.343Z,11.89
2022-07-26T12:33:56.907Z,12.05
2022-07-26T12:36:27.567Z,13.22
2022-07-26T12:39:00.809Z,12.32
2022-07-26T12:41:39.644Z,13.77
2022-07-26T12:44:08.660Z,13.47
2022-07-26T12:46:36.944Z,13.14
2022-07-26T12:49:04.742Z,13.11
2022-07-26T12:51:31.835Z,12.59
2022-07-26T12:53:58.885Z,13.74
2022-07-26T12:56:25.836Z,13.21
2022-07-26T12:58:54.170Z,13.79
2022-07-26T13:01:21.536Z,14.73
2022-07-26T13:03:48.423Z,16.00
2022-07-26T13:06:15.237Z,16.93
2022-07-26T13:08:42.099Z,17.28
2022-07-26T13:11:09.202Z,18.08
2022-07-26T13:13:36.080Z,18.37
2022-07-26T13:16:06.646Z,19.30
2022-07-26T13:18:36.460Z,19.09
2022-07-26T13:21:03.311Z,19.62
2022-07-26T13:23:30.220Z,20.23
2022-07-26T13:25:57.155Z,19.48
2022-07-26T13:28:24.591Z,20.23
2022-07-26T13:30:51.530Z,19.88
2022-07-26T13:33:18.405Z,19.90
2022-07-26T13:35:45.221Z,20.07
2022-07-26T13:38:19.174Z,20.17
2022-07-26T13:40:45.999Z,21.16
2022-07-26T13:43:12.721Z,21.31
2022-07-26T13:45:39.571Z,22.21
2022-07-26T13:48:07.120Z,22.56
2022-07-26T13:50:33.987Z,22.65
2022-07-26T13:53:00.777Z,23.42
2022-07-26T13:55:27.621Z,23.16
2022-07-26T13:57:56.883Z,23.15
2022-07-26T14:00:27.308Z,24.21
2022-07-26T14:02:56.905Z,24.59
2022-07-26T14:05:24.638Z,24.56
2022-07-26T14:07:51.759Z,24.88
2022-07-26T14:10:19.778Z,25.01
2022-07-26T14:12:47.914Z,25.68
2022-07-26T14:15:21.205Z,25.50
2022-07-26T14:17:49.367Z,25.54
2022-07-26T14:20:19.347Z,26.94
2022-07-26T14:22:47.300Z,27.23
2022-07-26T14:25:14.757Z,27.63
2022-07-26T14:27:41.609Z,28.27
2022-07-26T14:30:08.752Z,28.00
2022-07-26T14:32:35.683Z,28.13
2022-07-26T14:35:02.993Z,28.25
2022-07-26T14:37:44.121Z,28.70
2022-07-26T14:40:17.460Z,28.52
2022-07-26T14:42:45.365Z,28.36
2022-07-26T14:45:13.094Z,28.36
2022-07-26T14:47:40.114Z,27.49
2022-07-26T14:50:08.626Z,26.82
2022-07-26T14:52:45.435Z,26.18
2022-07-26T14:55:12.796Z,25.52
2022-07-26T14:57:40.447Z,25.11
2022-07-26T15:00:16.738Z,24.71
2022-07-26T15:02:45.733Z,24.87
2022-07-26T15:05:14.435Z,24.86
2022-07-26T15:07:42.192Z,25.01
2022-07-26T15:10:11.071Z,25.37
2022-07-26T15:12:38.698Z,25.68
2022-07-26T15:15:06.747Z,25.00
2022-07-26T15:17:33.546Z,24.87
2022-07-26T15:20:00.575Z,25.17
2022-07-26T16:26:38.353Z,38.66
2022-07-26T16:29:06.009Z,39.24
2022-07-26T16:31:33.299Z,39.33
2022-07-26T16:34:00.282Z,39.14
2022-07-26T16:36:27.515Z,39.41
2022-07-26T16:38:54.411Z,39.25
2022-07-26T16:41:21.275Z,39.63
2022-07-26T16:43:48.195Z,39.45
2022-07-26T16:46:15.087Z,39.18
2022-07-26T16:48:42.007Z,39.36
2022-07-26T16:51:09.079Z,39.69
2022-07-26T16:53:35.876Z,39.79
2022-07-26T16:56:02.671Z,40.35
2022-07-26T16:58:29.591Z,40.96
2022-07-26T17:00:56.505Z,41.17
2022-07-26T17:03:23.857Z,43.27
2022-07-26T17:05:50.800Z,43.78
2022-07-26T17:08:17.791Z,43.66
2022-07-26T17:10:44.695Z,44.46
2022-07-26T17:13:11.683Z,43.99
2022-07-26T17:15:38.570Z,44.62
2022-07-26T17:18:05.564Z,45.05
2022-07-26T17:20:32.405Z,45.19
2022-07-26T17:22:59.195Z,45.52
2022-07-26T17:25:25.949Z,46.31
2022-07-26T17:27:53.136Z,47.30
2022-07-26T17:30:19.978Z,47.51
2022-07-26T17:32:46.825Z,47.66
2022-07-26T17:35:15.019Z,48.14
2022-07-26T17:37:41.786Z,48.50
2022-07-26T17:40:11.004Z,48.92
2022-07-26T17:42:38.554Z,49.59
2022-07-26T17:45:06.585Z,50.54
2022-07-26T17:47:33.345Z,51.58
2022-07-26T17:52:53.429Z,53.29
2022-07-26T17:55:20.970Z,54.14
2022-07-26T17:57:49.723Z,55.07
2022-07-26T18:00:19.260Z,56.02
2022-07-26T18:02:46.803Z,56.70
2022-07-26T18:05:13.770Z,57.46
2022-07-26T18:07:40.884Z,58.19
2022-07-26T18:10:08.711Z,59.18
2022-07-26T18:12:35.595Z,59.65
2022-07-26T18:15:02.369Z,59.96
2022-07-26T18:17:29.189Z,60.22
2022-07-26T18:19:56.027Z,60.61
2022-07-26T18:22:23.426Z,60.81
2022-07-26T18:24:50.319Z,61.27
2022-07-26T18:27:17.352Z,62.81
2022-07-26T18:29:44.219Z,62.82
2022-07-26T18:32:11.119Z,63.62
2022-07-26T18:34:37.935Z,64.77
2022-07-26T18:37:05.267Z,65.96
2022-07-26T18:39:32.815Z,66.42
2022-07-26T18:42:01.205Z,67.39
2022-07-26T18:44:28.029Z,68.09
2022-07-26T18:46:56.243Z,69.63
2022-07-26T18:49:23.778Z,69.86
2022-07-26T18:52:00.707Z,70.32
2022-07-26T18:54:32.955Z,70.93
2022-07-26T18:56:59.741Z,70.87
2022-07-26T18:59:26.667Z,71.67
2022-07-26T19:01:53.536Z,72.29
2022-07-26T19:04:21.666Z,72.67
2022-07-26T19:06:49.747Z,72.66
2022-07-26T19:09:16.694Z,73.07
2022-07-26T19:11:45.828Z,73.46
2022-07-26T19:14:13.395Z,73.79
2022-07-26T19:16:40.193Z,74.25
2022-07-26T19:19:06.994Z,74.88
2022-07-26T19:21:33.862Z,75.40
2022-07-26T19:24:00.581Z,75.94
2022-07-26T19:26:27.655Z,76.48
2022-07-26T19:28:54.629Z,76.96
2022-07-26T19:31:22.313Z,77.21
2022-07-26T19:33:50.365Z,77.97
2022-07-26T19:36:25.303Z,78.24
2022-07-26T19:38:53.407Z,78.48
2022-07-26T19:41:20.214Z,78.96
2022-07-26T19:43:47.059Z,79.49
2022-07-26T19:46:14.002Z,79.43
2022-07-26T19:48:40.997Z,79.71
2022-07-26T19:51:07.953Z,81.44
2022-07-26T19:53:34.804Z,81.11
2022-07-26T19:56:01.697Z,81.02
2022-07-26T19:58:30.519Z,81.16
2022-07-26T20:00:57.356Z,81.52
2022-07-26T20:03:24.237Z,82.05
2022-07-26T20:05:53.464Z,82.11
2022-07-26T20:08:20.580Z,82.40
2022-07-26T20:10:47.420Z,83.06
2022-07-26T20:13:14.231Z,83.75
2022-07-26T20:15:40.958Z,84.07
2022-07-26T20:18:07.700Z,83.99
2022-07-26T20:20:34.429Z,84.44
2022-07-26T20:23:02.244Z,84.61
2022-07-26T20:25:29.041Z,84.64
2022-07-26T20:27:55.842Z,84.46
2022-07-26T20:30:22.737Z,85.08
2022-07-26T20:32:49.555Z,85.47
2022-07-26T20:35:16.688Z,85.40
2022-07-26T20:37:43.600Z,85.77
2022-07-26T20:40:12.559Z,86.02
2022-07-26T20:42:44.241Z,86.11
2022-07-26T20:45:12.975Z,86.73
2022-07-26T20:47:40.532Z,87.01
2022-07-26T20:50:09.595Z,87.14
2022-07-26T20:52:36.583Z,87.60
2022-07-26T20:55:04.175Z,86.90
2022-07-26T20:57:31.042Z,87.03
2022-07-26T20:59:58.236Z,86.80
2022-07-26T21:02:25.100Z,87.24
2022-07-26T21:04:51.929Z,87.43
2022-07-26T21:07:19.024Z,87.80
2022-07-26T21:09:45.834Z,87.69
2022-07-26T21:12:12.656Z,87.77
2022-07-26T21:14:39.417Z,88.23
2022-07-26T21:17:11.333Z,88.28
2022-07-26T21:19:38.732Z,88.27
2022-07-26T21:22:05.618Z,88.57
2022-07-26T21:24:32.449Z,88.58
2022-07-26T21:26:59.175Z,89.04
2022-07-26T21:29:25.928Z,89.01
2022-07-26T21:31:52.752Z,89.38
2022-07-26T21:34:19.813Z,89.28
2022-07-26T21:36:46.626Z,89.80
2022-07-26T21:39:14.230Z,89.40
2022-07-26T21:41:41.270Z,89.52
2022-07-26T21:44:08.124Z,89.06
2022-07-26T21:46:34.958Z,89.28
2022-07-26T21:49:02.161Z,89.69
2022-07-26T21:51:28.924Z,89.67
2022-07-26T21:53:56.283Z,89.79
2022-07-26T21:56:23.092Z,90.29
2022-07-26T21:58:49.925Z,89.78
2022-07-26T22:01:17.165Z,89.51
2022-07-26T22:03:44.025Z,89.44
2022-07-26T22:06:11.441Z,90.09
2022-07-26T22:08:38.435Z,90.43
2022-07-26T22:11:05.642Z,90.22
2022-07-26T22:13:32.530Z,90.40
2022-07-26T22:15:59.400Z,90.96
2022-07-26T22:18:26.675Z,91.62
2022-07-26T22:20:54.336Z,91.85
2022-07-26T22:23:30.226Z,92.15
2022-07-26T22:25:59.188Z,92.33
2022-07-26T22:28:26.147Z,92.38
2022-07-26T22:30:53.032Z,92.49
2022-07-26T22:33:19.967Z,92.42
2022-07-26T22:35:47.675Z,92.41
2022-07-26T22:38:14.740Z,92.40
2022-07-26T22:40:42.735Z,92.15
2022-07-26T22:43:10.897Z,92.45
2022-07-26T22:45:38.234Z,92.39
2022-07-26T22:48:05.986Z,91.95
2022-07-26T22:50:33.583Z,91.81
2022-07-26T22:53:03.610Z,91.63
2022-07-26T22:55:30.664Z,91.57
2022-07-26T22:57:57.397Z,91.88
2022-07-26T23:00:24.511Z,92.30
2022-07-26T23:02:51.766Z,92.81
2022-07-26T23:05:19.363Z,94.35
2022-07-26T23:07:48.104Z,93.90
2022-07-26T23:10:16.180Z,93.56
2022-07-26T23:12:43.168Z,93.26
2022-07-26T23:15:11.081Z,93.40
2022-07-26T23:17:38.396Z,93.38
2022-07-26T23:20:07.371Z,93.21
2022-07-26T23:22:34.379Z,93.40
2022-07-26T23:25:01.183Z,93.47
2022-07-26T23:27:27.990Z,93.30
2022-07-26T23:29:54.862Z,93.55
2022-07-26T23:32:21.758Z,93.80
2022-07-26T23:34:48.594Z,93.99
2022-07-26T23:37:15.432Z,93.71
2022-07-26T23:39:42.440Z,93.44
2022-07-26T23:42:09.199Z,93.53
2022-07-26T23:44:36.224Z,93.52
2022-07-26T23:47:03.181Z,93.63
2022-07-26T23:49:30.147Z,93.28
2022-07-26T23:51:56.995Z,93.87
2022-07-26T23:54:23.715Z,93.90
2022-07-26T23:56:50.524Z,93.93
2022-07-26T23:59:17.477Z,93.48
